createdAt,value
2022-12-18T00:01:17.100Z,2.60
2022-12-18T00:03:45.162Z,3.78
2022-12-18T00:06:13.280Z,3.60
2022-12-18T00:08:40.741Z,1.98
2022-12-18T00:11:13.467Z,2.28
2022-12-18T00:13:41.552Z,3.28
2022-12-18T00:16:10.693Z,3.33
2022-12-18T00:18:38.438Z,2.42
2022-12-18T00:21:07.642Z,2.80
2022-12-18T00:23:36.540Z,2.63
2022-12-18T00:26:05.983Z,3.20
2022-12-18T00:28:33.377Z,3.65
2022-12-18T00:31:04.922Z,1.00
2022-12-18T00:33:32.325Z,2.30
2022-12-18T00:36:07.345Z,1.85
2022-12-18T00:38:35.343Z,2.58
2022-12-18T00:41:03.129Z,1.88
2022-12-18T00:43:30.669Z,1.73
2022-12-18T00:45:58.057Z,1.88
2022-12-18T00:48:25.484Z,1.98
2022-12-18T00:50:52.999Z,2.30
2022-12-18T00:53:20.552Z,2.80
2022-12-18T00:55:48.370Z,2.45
2022-12-18T00:58:16.847Z,2.38
2022-12-18T01:00:44.731Z,0.90
2022-12-18T01:03:15.099Z,2.17
2022-12-18T01:05:43.691Z,0.93
2022-12-18T01:08:11.150Z,2.08
2022-12-18T01:10:38.559Z,3.30
2022-12-18T01:13:05.916Z,1.73
2022-12-18T01:15:33.209Z,0.70
2022-12-18T01:18:00.566Z,1.15
2022-12-18T01:20:27.939Z,0.75
2022-12-18T01:22:55.272Z,1.73
2022-12-18T01:25:22.636Z,1.00
2022-12-18T01:27:49.981Z,1.15
2022-12-18T01:30:17.454Z,1.77
2022-12-18T01:32:44.818Z,1.10
2022-12-18T01:35:12.284Z,0.63
2022-12-18T01:37:39.690Z,1.13
2022-12-18T01:40:07.428Z,1.20
2022-12-18T01:42:34.786Z,1.40
2022-12-18T01:45:02.296Z,1.40
2022-12-18T01:47:29.703Z,1.02
2022-12-18T01:49:57.743Z,2.10
2022-12-18T01:52:26.928Z,2.50
2022-12-18T01:54:54.980Z,2.10
2022-12-18T01:57:24.668Z,1.60
2022-12-18T01:59:53.938Z,0.88
2022-12-18T02:02:22.644Z,2.35
2022-12-18T02:04:50.058Z,1.50
2022-12-18T02:07:17.405Z,0.35
2022-12-18T02:10:01.437Z,0.93
2022-12-18T02:12:36.992Z,0.88
2022-12-18T02:15:11.571Z,1.08
2022-12-18T02:17:41.868Z,0.75
2022-12-18T02:20:15.641Z,0.73
2022-12-18T02:22:45.997Z,1.75
2022-12-18T02:25:16.072Z,2.33
2022-12-18T02:27:47.030Z,1.05
2022-12-18T02:30:14.534Z,2.95
2022-12-18T02:32:46.164Z,1.70
2022-12-18T02:35:18.775Z,1.17
2022-12-18T02:37:47.163Z,3.53
2022-12-18T02:40:15.828Z,1.40
2022-12-18T02:42:43.470Z,2.05
2022-12-18T02:45:11.465Z,2.10
2022-12-18T02:47:41.056Z,1.50
2022-12-18T02:50:12.080Z,0.68
2022-12-18T02:52:45.694Z,2.08
2022-12-18T02:55:51.801Z,1.13
2022-12-18T02:58:37.619Z,0.73
2022-12-18T03:01:05.003Z,1.70
2022-12-18T03:03:37.449Z,1.13
2022-12-18T03:06:10.866Z,1.15
2022-12-18T03:08:43.778Z,2.08
2022-12-18T03:11:13.019Z,1.23
2022-12-18T03:13:49.522Z,0.52
2022-12-18T03:16:23.017Z,1.00
2022-12-18T03:18:59.195Z,4.07
2022-12-18T03:21:31.183Z,2.45
2022-12-18T03:23:58.853Z,1.85
2022-12-18T03:26:27.800Z,1.73
2022-12-18T03:31:25.696Z,2.42
2022-12-18T03:33:54.752Z,0.88
2022-12-18T03:36:23.260Z,1.00
2022-12-18T03:38:50.814Z,1.50
2022-12-18T03:41:29.042Z,0.90
2022-12-18T03:43:59.703Z,0.98
2022-12-18T03:46:27.221Z,0.40
2022-12-18T03:48:56.914Z,1.15
2022-12-18T03:51:36.141Z,1.98
2022-12-18T03:54:05.135Z,0.80
2022-12-18T03:59:04.318Z,0.52
2022-12-18T04:01:34.033Z,0.95
2022-12-18T04:04:03.149Z,0.82
2022-12-18T04:06:31.296Z,0.43
2022-12-18T04:09:01.911Z,0.40
2022-12-18T04:11:29.378Z,1.20
2022-12-18T04:14:01.279Z,1.10
2022-12-18T04:16:30.349Z,0.98
2022-12-18T04:18:57.785Z,1.77
2022-12-18T04:21:25.293Z,1.75
2022-12-18T04:23:52.704Z,1.45
2022-12-18T04:26:20.071Z,2.72
2022-12-18T04:28:47.488Z,1.83
2022-12-18T04:31:14.901Z,1.25
2022-12-18T04:33:42.857Z,1.23
2022-12-18T04:36:10.407Z,1.13
2022-12-18T04:38:37.794Z,1.77
2022-12-18T04:41:05.252Z,1.05
2022-12-18T04:43:34.115Z,1.83
2022-12-18T04:46:08.089Z,0.57
2022-12-18T04:48:35.849Z,0.93
2022-12-18T04:51:03.266Z,0.98
2022-12-18T04:53:30.639Z,2.03
2022-12-18T04:56:08.872Z,1.20
2022-12-18T04:58:36.666Z,0.95
2022-12-18T05:01:04.424Z,0.05
2022-12-18T05:03:33.881Z,1.33
2022-12-18T05:06:01.449Z,1.17
2022-12-18T05:08:28.834Z,0.82
2022-12-18T05:11:09.801Z,0.63
2022-12-18T05:13:39.482Z,0.08
2022-12-18T05:16:07.546Z,1.10
2022-12-18T05:18:35.536Z,0.95
2022-12-18T05:21:02.973Z,0.60
2022-12-18T05:23:30.751Z,0.90
2022-12-18T05:26:03.119Z,1.48
2022-12-18T05:28:31.908Z,0.47
2022-12-18T05:31:00.689Z,0.40
2022-12-18T05:33:29.051Z,0.32
2022-12-18T05:35:57.616Z,0.68
2022-12-18T05:38:25.795Z,1.15
2022-12-18T05:40:53.328Z,0.52
2022-12-18T05:43:21.839Z,0.50
2022-12-18T05:45:49.514Z,0.75
2022-12-18T05:48:17.403Z,1.00
2022-12-18T05:50:46.633Z,1.35
2022-12-18T05:53:14.779Z,1.02
2022-12-18T05:55:45.305Z,0.68
2022-12-18T05:58:15.672Z,0.98
2022-12-18T06:00:44.293Z,0.47
2022-12-18T06:03:13.094Z,0.60
2022-12-18T06:08:07.936Z,0.20
2022-12-18T06:10:35.432Z,0.15
2022-12-18T06:13:02.798Z,0.28
2022-12-18T06:15:32.583Z,0.68
2022-12-18T06:18:00.390Z,0.25
2022-12-18T06:20:33.285Z,0.47
2022-12-18T06:23:02.132Z,0.52
2022-12-18T06:25:30.411Z,1.42
2022-12-18T06:27:58.397Z,0.17
2022-12-18T06:30:26.398Z,1.20
2022-12-18T06:32:56.554Z,1.33
2022-12-18T06:35:25.676Z,0.60
2022-12-18T06:40:20.444Z,1.55
2022-12-18T06:42:47.990Z,1.33
2022-12-18T06:45:17.131Z,0.20
2022-12-18T06:47:45.252Z,0.38
2022-12-18T06:52:41.651Z,0.82
2022-12-18T06:55:09.488Z,1.38
2022-12-18T06:57:38.831Z,1.95
2022-12-18T07:00:07.692Z,3.22
2022-12-18T07:02:38.773Z,2.30
2022-12-18T07:05:10.671Z,1.95
2022-12-18T07:07:39.066Z,2.22
2022-12-18T07:10:06.736Z,2.43
2022-12-18T07:12:34.686Z,3.08
2022-12-18T07:15:02.678Z,4.17
2022-12-18T07:17:31.027Z,4.07
2022-12-18T07:19:58.754Z,0.82
2022-12-18T07:22:27.453Z,2.42
2022-12-18T07:24:58.909Z,3.15
2022-12-18T07:27:28.098Z,2.67
2022-12-18T07:29:56.189Z,1.40
2022-12-18T07:32:24.255Z,2.17
2022-12-18T07:34:52.160Z,1.33
2022-12-18T07:37:20.008Z,1.90
2022-12-18T07:39:49.676Z,1.10
2022-12-18T07:45:02.325Z,0.30
2022-12-18T07:47:33.773Z,1.27
2022-12-18T07:50:01.554Z,1.42
2022-12-18T07:52:30.551Z,2.13
2022-12-18T07:55:01.890Z,2.33
2022-12-18T08:00:18.251Z,2.22
2022-12-18T08:02:46.723Z,2.85
2022-12-18T08:05:16.189Z,1.60
2022-12-18T08:07:44.286Z,3.40
2022-12-18T08:10:11.787Z,3.20
2022-12-18T08:12:39.112Z,1.15
2022-12-18T08:15:07.155Z,3.17
2022-12-18T08:17:34.522Z,5.17
2022-12-18T08:20:02.885Z,3.13
2022-12-18T08:22:30.371Z,2.15
2022-12-18T08:24:59.168Z,4.75
2022-12-18T08:27:30.357Z,4.38
2022-12-18T08:29:58.496Z,4.95
2022-12-18T08:32:26.638Z,3.85
2022-12-18T08:34:54.109Z,1.85
2022-12-18T08:37:21.451Z,2.67
2022-12-18T08:39:49.191Z,2.00
2022-12-18T08:42:35.478Z,1.92
2022-12-18T08:45:04.303Z,2.10
2022-12-18T08:47:32.280Z,3.93
2022-12-18T08:50:00.299Z,2.63
2022-12-18T08:52:29.884Z,1.85
2022-12-18T08:55:00.647Z,2.50
2022-12-18T08:57:28.437Z,3.67
2022-12-18T08:59:56.011Z,2.88
2022-12-18T09:02:23.677Z,2.85
2022-12-18T09:04:56.965Z,3.78
2022-12-18T09:07:24.900Z,2.55
2022-12-18T09:09:52.763Z,4.50
2022-12-18T09:12:20.137Z,3.78
2022-12-18T09:14:47.591Z,3.65
2022-12-18T09:17:15.413Z,3.50
2022-12-18T09:19:43.083Z,2.25
2022-12-18T09:22:10.755Z,3.25
2022-12-18T09:24:38.095Z,2.25
2022-12-18T09:27:05.430Z,1.77
2022-12-18T09:29:33.250Z,4.18
2022-12-18T09:32:00.714Z,2.70
2022-12-18T09:34:28.090Z,3.85
2022-12-18T09:36:55.636Z,5.03
2022-12-18T09:39:24.276Z,2.90
2022-12-18T09:41:57.196Z,4.30
2022-12-18T09:44:29.986Z,3.72
2022-12-18T09:47:00.639Z,4.32
2022-12-18T09:49:30.628Z,3.97
2022-12-18T09:55:02.734Z,5.43
2022-12-18T09:57:33.334Z,4.72
2022-12-18T10:00:08.579Z,3.38
2022-12-18T10:02:36.099Z,3.85
2022-12-18T10:05:04.346Z,3.35
2022-12-18T10:07:52.056Z,4.27
2022-12-18T10:10:19.638Z,1.95
2022-12-18T10:13:09.374Z,4.13
2022-12-18T10:15:49.506Z,2.40
2022-12-18T10:18:21.726Z,3.05
2022-12-18T10:20:51.541Z,3.55
2022-12-18T10:23:28.181Z,3.22
2022-12-18T10:26:02.402Z,2.67
2022-12-18T10:28:31.839Z,2.65
2022-12-18T10:30:59.995Z,2.10
2022-12-18T10:33:31.117Z,3.10
2022-12-18T10:35:58.739Z,3.35
2022-12-18T10:38:30.728Z,1.75
2022-12-18T10:41:00.616Z,1.10
2022-12-18T10:43:35.846Z,3.60
2022-12-18T10:46:07.022Z,2.20
2022-12-18T10:48:35.953Z,5.22
2022-12-18T10:51:13.536Z,1.98
2022-12-18T10:53:42.477Z,2.97
2022-12-18T10:56:10.361Z,5.03
2022-12-18T10:58:39.111Z,3.38
2022-12-18T11:01:06.599Z,5.30
2022-12-18T11:03:37.278Z,4.80
2022-12-18T11:06:05.844Z,3.40
2022-12-18T11:08:33.311Z,4.00
2022-12-18T11:11:00.801Z,2.67
2022-12-18T11:13:29.916Z,3.05
2022-12-18T11:15:57.819Z,2.75
2022-12-18T11:18:31.512Z,2.00
2022-12-18T11:21:13.007Z,2.40
2022-12-18T11:23:49.323Z,2.00
2022-12-18T11:26:16.776Z,3.72
2022-12-18T11:28:44.565Z,3.17
2022-12-18T11:31:18.387Z,3.77
2022-12-18T11:34:11.919Z,2.10
2022-12-18T11:36:40.097Z,3.55
2022-12-18T11:39:25.072Z,2.80
2022-12-18T11:42:10.613Z,2.28
2022-12-18T11:44:44.195Z,3.30
2022-12-18T11:47:22.739Z,2.85
2022-12-18T11:49:51.328Z,2.35
2022-12-18T11:52:24.453Z,1.23
2022-12-18T11:54:59.707Z,3.40
2022-12-18T11:57:58.674Z,3.90
2022-12-18T12:00:26.390Z,1.63
2022-12-18T12:03:00.058Z,4.30
2022-12-18T12:05:27.546Z,2.08
2022-12-18T12:08:07.177Z,4.20
2022-12-18T12:10:57.982Z,2.45
2022-12-18T12:13:31.374Z,4.13
2022-12-18T12:16:02.022Z,3.17
2022-12-18T12:18:38.659Z,0.80
2022-12-18T12:21:09.180Z,2.38
2022-12-18T12:23:51.888Z,3.10
2022-12-18T12:26:59.274Z,1.88
2022-12-18T12:30:00.464Z,3.00
2022-12-18T12:32:27.909Z,1.45
2022-12-18T12:35:00.240Z,2.85
2022-12-18T12:37:48.969Z,3.42
2022-12-18T12:40:49.102Z,3.30
2022-12-18T12:43:14.345Z,2.40
2022-12-18T12:45:49.086Z,3.67
2022-12-18T12:48:25.294Z,3.03
2022-12-18T12:50:52.896Z,2.28
2022-12-18T12:53:29.742Z,3.10
2022-12-18T12:55:57.775Z,2.13
2022-12-18T12:58:32.533Z,3.30
2022-12-18T13:01:38.543Z,3.40
2022-12-18T13:04:45.192Z,2.65
2022-12-18T13:07:19.788Z,2.33
2022-12-18T13:10:06.327Z,3.60
2022-12-18T13:12:53.685Z,3.25
2022-12-18T13:15:47.256Z,4.10
2022-12-18T13:18:16.402Z,3.08
2022-12-18T13:20:52.475Z,2.35
2022-12-18T13:23:25.878Z,2.92
2022-12-18T13:26:11.507Z,3.95
2022-12-18T13:28:48.071Z,3.70
2022-12-18T13:31:18.596Z,2.83
2022-12-18T13:34:23.959Z,3.47
2022-12-18T13:36:35.321Z,1.20
2022-12-18T13:39:19.745Z,3.60
2022-12-18T13:41:52.514Z,3.40
2022-12-18T13:44:52.312Z,3.20
2022-12-18T13:47:39.688Z,2.72
2022-12-18T13:50:25.170Z,4.50
2022-12-18T13:52:53.155Z,3.00
2022-12-18T13:55:22.643Z,3.80
2022-12-18T13:57:50.154Z,4.68
2022-12-18T14:00:25.491Z,2.85
2022-12-18T14:02:53.533Z,6.22
2022-12-18T14:05:26.340Z,3.30
2022-12-18T14:07:54.705Z,2.38
2022-12-18T14:13:12.426Z,1.15
2022-12-18T14:15:48.562Z,4.88
2022-12-18T14:18:15.864Z,3.17
2022-12-18T14:20:52.122Z,2.90
2022-12-18T14:23:37.192Z,4.15
2022-12-18T14:26:21.130Z,2.30
2022-12-18T14:28:52.373Z,5.18
2022-12-18T14:31:21.827Z,3.88
2022-12-18T14:33:51.427Z,2.50
2022-12-18T14:36:21.511Z,2.80
2022-12-18T14:38:54.826Z,3.80
2022-12-18T14:41:23.056Z,5.03
2022-12-18T14:43:51.906Z,4.78
2022-12-18T14:46:34.382Z,3.38
2022-12-18T14:49:22.102Z,3.78
2022-12-18T14:51:52.523Z,5.25
2022-12-18T14:54:23.970Z,4.53
2022-12-18T14:56:53.689Z,3.90
2022-12-18T14:59:25.476Z,3.50
2022-12-18T15:01:57.656Z,3.90
2022-12-18T15:04:28.245Z,2.88
2022-12-18T15:07:06.921Z,3.20
2022-12-18T15:09:34.608Z,3.60
2022-12-18T15:12:02.991Z,3.30
2022-12-18T15:14:34.035Z,5.03
2022-12-18T15:17:02.366Z,3.05
2022-12-18T15:19:50.581Z,3.55
2022-12-18T15:22:27.214Z,3.65
2022-12-18T15:24:55.719Z,3.55
2022-12-18T15:27:28.471Z,3.03
2022-12-18T15:30:03.698Z,3.95
2022-12-18T15:32:31.919Z,3.40
2022-12-18T15:35:10.924Z,3.97
2022-12-18T15:37:39.553Z,3.05
2022-12-18T15:40:11.133Z,4.80
2022-12-18T15:42:58.973Z,3.97
2022-12-18T15:45:26.968Z,3.00
2022-12-18T15:47:56.119Z,3.55
2022-12-18T15:50:24.073Z,2.83
2022-12-18T15:52:53.247Z,4.82
2022-12-18T15:55:41.122Z,2.03
2022-12-18T15:58:10.924Z,4.03
2022-12-18T16:00:40.463Z,2.63
2022-12-18T16:03:09.040Z,5.10
2022-12-18T16:05:40.166Z,3.83
2022-12-18T16:08:08.038Z,4.68
2022-12-18T16:10:37.314Z,4.25
2022-12-18T16:13:05.699Z,3.30
2022-12-18T16:15:33.865Z,2.92
2022-12-18T16:18:01.852Z,3.40
2022-12-18T16:20:30.014Z,6.50
2022-12-18T16:22:58.276Z,3.30
2022-12-18T16:25:28.548Z,5.40
2022-12-18T16:27:58.358Z,1.92
2022-12-18T16:30:29.441Z,4.55
2022-12-18T16:33:01.457Z,4.30
2022-12-18T16:35:29.872Z,11.10
2022-12-18T16:37:58.117Z,9.30
2022-12-18T16:40:27.146Z,3.88
2022-12-18T16:42:55.646Z,4.78
2022-12-18T16:45:23.784Z,4.25
2022-12-18T16:47:51.836Z,3.47
2022-12-18T16:50:20.337Z,2.90
2022-12-18T16:52:48.412Z,4.28
2022-12-18T16:55:16.810Z,3.50
2022-12-18T16:57:44.836Z,2.05
2022-12-18T17:00:14.489Z,4.90
2022-12-18T17:02:43.199Z,3.70
2022-12-18T17:05:11.046Z,2.15
2022-12-18T17:07:38.696Z,5.47
2022-12-18T17:10:06.566Z,4.65
2022-12-18T17:12:37.862Z,4.50
2022-12-18T17:15:06.366Z,2.85
2022-12-18T17:17:37.235Z,4.72
2022-12-18T17:20:08.807Z,3.63
2022-12-18T17:22:37.104Z,7.10
2022-12-18T17:25:05.640Z,3.25
2022-12-18T17:27:36.864Z,3.30
2022-12-18T17:30:05.552Z,4.35
2022-12-18T17:32:33.622Z,5.35
2022-12-18T17:35:06.986Z,3.60
2022-12-18T17:37:35.924Z,4.00
2022-12-18T17:40:04.172Z,3.15
2022-12-18T17:42:32.164Z,3.75
2022-12-18T17:45:01.868Z,3.83
2022-12-18T17:47:30.199Z,3.53
2022-12-18T17:49:58.415Z,4.93
2022-12-18T17:52:27.506Z,8.73
2022-12-18T17:54:56.844Z,5.80
2022-12-18T17:57:25.055Z,6.93
2022-12-18T17:59:52.901Z,10.20
2022-12-18T18:02:21.535Z,5.60
2022-12-18T18:04:51.428Z,4.40
2022-12-18T18:07:19.469Z,6.43
2022-12-18T18:09:48.557Z,4.03
2022-12-18T18:12:35.475Z,4.47
2022-12-18T18:15:04.579Z,5.53
2022-12-18T18:17:36.226Z,5.72
2022-12-18T18:22:49.200Z,3.83
2022-12-18T18:25:18.763Z,4.33
2022-12-18T18:27:47.885Z,3.88
2022-12-18T18:30:16.247Z,5.35
2022-12-18T18:32:45.925Z,5.18
2022-12-18T18:35:44.711Z,2.80
2022-12-18T18:38:04.731Z,2.50
2022-12-18T18:40:32.853Z,2.88
2022-12-18T18:43:01.077Z,5.07
2022-12-18T18:45:29.458Z,4.30
2022-12-18T18:47:57.208Z,5.50
2022-12-18T18:50:25.508Z,4.15
2022-12-18T18:52:53.356Z,5.68
2022-12-18T18:55:25.431Z,3.83
2022-12-18T18:57:53.606Z,3.55
2022-12-18T19:00:22.100Z,3.33
2022-12-18T19:05:22.972Z,5.63
2022-12-18T19:07:51.264Z,5.55
2022-12-18T19:10:19.097Z,3.05
2022-12-18T19:13:05.392Z,4.85
2022-12-18T19:15:37.722Z,4.07
2022-12-18T19:18:05.863Z,5.55
2022-12-18T19:20:34.186Z,4.43
2022-12-18T19:23:02.284Z,3.10
2022-12-18T19:25:38.528Z,3.67
2022-12-18T19:28:12.059Z,4.80
2022-12-18T19:30:49.997Z,3.30
2022-12-18T19:33:41.901Z,5.85
2022-12-18T19:36:16.687Z,4.93
2022-12-18T19:38:45.463Z,5.22
2022-12-18T19:41:15.029Z,4.05
2022-12-18T19:46:12.809Z,4.13
2022-12-18T19:48:41.159Z,4.72
2022-12-18T19:51:10.094Z,2.92
2022-12-18T19:53:38.351Z,2.97
2022-12-18T19:56:10.361Z,3.20
2022-12-18T19:58:39.519Z,4.28
2022-12-18T20:01:08.163Z,6.78
2022-12-18T20:03:38.880Z,3.25
2022-12-18T20:06:11.317Z,3.67
2022-12-18T20:08:40.219Z,4.97
2022-12-18T20:11:09.754Z,4.38
2022-12-18T20:13:37.359Z,3.00
2022-12-18T20:16:05.569Z,3.85
2022-12-18T20:18:33.387Z,2.83
2022-12-18T20:21:01.280Z,4.30
2022-12-18T20:23:32.230Z,5.03
2022-12-18T20:26:01.864Z,3.95
2022-12-18T20:28:29.539Z,3.97
2022-12-18T20:31:03.754Z,4.43
2022-12-18T20:33:32.502Z,2.90
2022-12-18T20:36:06.417Z,3.53
2022-12-18T20:38:36.124Z,5.47
2022-12-18T20:41:07.576Z,1.55
2022-12-18T20:43:35.293Z,3.72
2022-12-18T20:46:07.140Z,4.07
2022-12-18T20:48:35.071Z,4.43
2022-12-18T20:51:08.861Z,3.22
2022-12-18T20:53:36.798Z,4.82
2022-12-18T20:56:10.539Z,3.58
2022-12-18T20:58:38.186Z,3.67
2022-12-18T21:01:07.939Z,3.95
2022-12-18T21:03:37.594Z,3.13
2022-12-18T21:06:05.533Z,3.28
2022-12-18T21:08:33.908Z,3.13
2022-12-18T21:11:34.967Z,5.88
2022-12-18T21:14:03.290Z,4.70
2022-12-18T21:16:31.347Z,3.47
2022-12-18T21:18:59.014Z,4.00
2022-12-18T21:21:27.252Z,2.38
2022-12-18T21:23:55.379Z,4.00
2022-12-18T21:26:24.855Z,5.50
2022-12-18T21:28:57.311Z,3.53
2022-12-18T21:31:25.532Z,3.10
2022-12-18T21:34:01.269Z,6.20
2022-12-18T21:36:30.261Z,5.20
2022-12-18T21:38:58.502Z,3.88
2022-12-18T21:41:56.399Z,4.78
2022-12-18T21:44:24.011Z,2.87
2022-12-18T21:46:56.937Z,4.07
2022-12-18T21:49:27.633Z,2.22
2022-12-18T21:51:56.362Z,5.05
2022-12-18T21:54:24.028Z,6.07
2022-12-18T21:56:55.506Z,2.28
2022-12-18T21:59:25.999Z,1.48
2022-12-18T22:01:54.132Z,4.18
2022-12-18T22:04:22.204Z,1.77
2022-12-18T22:06:50.275Z,1.98
2022-12-18T22:09:21.359Z,3.22
2022-12-18T22:11:49.264Z,3.47
2022-12-18T22:14:17.133Z,3.20
2022-12-18T22:16:44.769Z,2.95
2022-12-18T22:19:12.961Z,2.43
2022-12-18T22:21:43.554Z,4.18
2022-12-18T22:24:17.575Z,3.22
2022-12-18T22:26:45.049Z,4.32
2022-12-18T22:29:38.416Z,3.10
2022-12-18T22:32:06.603Z,3.22
2022-12-18T22:34:36.843Z,5.97
2022-12-18T22:37:04.823Z,3.45
2022-12-18T22:39:32.763Z,6.32
2022-12-18T22:42:00.341Z,3.33
2022-12-18T22:44:28.485Z,2.58
2022-12-18T22:47:07.087Z,3.80
2022-12-18T22:49:35.698Z,2.25
2022-12-18T22:52:07.394Z,2.65
2022-12-18T22:54:35.087Z,3.83
2022-12-18T22:57:02.564Z,3.92
2022-12-18T22:59:30.626Z,2.00
2022-12-18T23:01:58.594Z,3.05
2022-12-18T23:04:36.072Z,2.47
2022-12-18T23:07:04.902Z,2.55
2022-12-18T23:09:32.552Z,3.40
2022-12-18T23:12:00.091Z,2.50
2022-12-18T23:14:28.074Z,2.38
2022-12-18T23:16:55.551Z,3.10
2022-12-18T23:19:23.719Z,3.33
2022-12-18T23:21:51.456Z,3.60
2022-12-18T23:24:18.891Z,4.65
2022-12-18T23:26:46.648Z,4.50
2022-12-18T23:29:14.792Z,3.80
2022-12-18T23:31:42.232Z,2.80
2022-12-18T23:34:12.013Z,4.30
2022-12-18T23:36:45.495Z,4.10
2022-12-18T23:39:21.597Z,2.85
2022-12-18T23:41:58.222Z,2.30
2022-12-18T23:44:25.722Z,2.53
2022-12-18T23:46:53.254Z,3.08
2022-12-18T23:49:20.663Z,3.95
2022-12-18T23:51:48.013Z,4.43
2022-12-18T23:54:15.437Z,6.03
2022-12-18T23:56:43.119Z,4.47
2022-12-18T23:59:10.571Z,4.22
